Time;durP1;ratioP1;P1;durP2;ratioP2;P2;SDS_P1;SDS_P2;PMS_P1;PMS_P2;Temp;Humidity;BMP_temperature;BMP_pressure;BME280_temperature;BME280_humidity;BME280_pressure;Samples;Min_cycle;Max_cycle;Signal;HPM_P1;HPM_P2
2022/06/14 00:00:53;;;;;;;9.02;1.88;;;18.40;79.50;;;;;;5060918;28;20029;-66
2022/06/14 00:02:20;;;;;;;7.93;2.20;;;18.30;79.60;;;;;;5057324;28;20041;-66
2022/06/14 00:04:46;;;;;;;8.10;2.33;;;18.30;79.70;;;;;;5060335;28;20108;-66
2022/06/14 00:07:12;;;;;;;6.68;1.88;;;18.30;79.60;;;;;;5053538;28;20032;-66
2022/06/14 00:09:37;;;;;;;12.30;1.90;;;18.20;79.50;;;;;;5063630;28;20094;-66
2022/06/14 00:12:03;;;;;;;6.15;2.20;;;18.20;79.50;;;;;;5071139;28;20029;-66
2022/06/14 00:14:29;;;;;;;11.55;2.72;;;18.10;79.40;;;;;;5071098;28;20054;-66
2022/06/14 00:16:55;;;;;;;6.22;1.98;;;18.10;79.50;;;;;;5068933;28;20601;-66
2022/06/14 00:19:20;;;;;;;8.00;2.08;;;18.00;79.80;;;;;;5055787;28;20044;-66
2022/06/14 00:21:46;;;;;;;7.70;1.63;;;18.00;79.90;;;;;;5060029;28;20029;-65
2022/06/14 00:24:13;;;;;;;7.65;2.00;;;18.00;79.90;;;;;;5058786;28;20581;-64
2022/06/14 00:26:38;;;;;;;8.88;2.58;;;17.90;79.90;;;;;;5071387;28;20059;-64
2022/06/14 00:29:04;;;;;;;6.05;1.80;;;17.90;80.00;;;;;;5058624;28;20421;-64
2022/06/14 00:31:30;;;;;;;6.88;1.70;;;17.90;80.60;;;;;;5065236;28;20207;-65
2022/06/14 00:33:57;;;;;;;5.88;2.72;;;17.80;80.10;;;;;;5055255;28;20801;-65
2022/06/14 00:36:34;;;;;;;7.15;1.85;;;17.80;80.00;;;;;;5054011;28;20040;-64
2022/06/14 00:39:06;;;;;;;10.02;2.55;;;17.80;80.10;;;;;;5060414;28;20059;-64
2022/06/14 00:41:40;;;;;;;8.23;2.22;;;17.80;80.10;;;;;;5069395;28;20028;-64
2022/06/14 00:44:13;;;;;;;7.70;2.30;;;17.70;80.00;;;;;;5062637;28;20361;-64
2022/06/14 00:47:00;;;;;;;5.23;1.87;;;17.80;79.90;;;;;;5057615;28;20047;-65
2022/06/14 00:49:38;;;;;;;6.55;1.85;;;17.70;79.80;;;;;;5071684;28;20025;-65
2022/06/14 00:52:20;;;;;;;6.40;1.77;;;17.60;79.70;;;;;;5072336;28;20036;-65
2022/06/14 00:54:50;;;;;;;10.45;1.98;;;17.60;79.80;;;;;;5054866;28;20044;-66
2022/06/14 00:57:22;;;;;;;7.97;3.25;;;17.60;80.00;;;;;;5069418;28;20554;-66
2022/06/14 00:59:57;;;;;;;8.88;2.15;;;17.50;79.90;;;;;;5075066;28;20062;-66
2022/06/14 01:02:30;;;;;;;11.50;2.40;;;17.50;79.90;;;;;;5059867;28;20614;-65
2022/06/14 01:04:59;;;;;;;10.23;2.25;;;17.40;80.00;;;;;;5064091;28;20037;-66
2022/06/14 01:07:31;;;;;;;11.75;2.42;;;17.40;80.00;;;;;;5064782;28;20045;-66
2022/06/14 01:10:01;;;;;;;8.53;2.57;;;17.40;80.00;;;;;;5060805;28;20467;-66
2022/06/14 01:12:35;;;;;;;6.07;1.85;;;17.30;80.00;;;;;;5066600;28;20036;-66
2022/06/14 01:15:12;;;;;;;13.15;2.30;;;17.30;80.10;;;;;;5075164;28;20024;-66
2022/06/14 01:17:42;;;;;;;10.73;2.50;;;17.40;80.20;;;;;;5071469;28;20039;-66
2022/06/14 01:20:10;;;;;;;10.15;1.98;;;17.30;80.20;;;;;;5073536;28;20365;-65
2022/06/14 01:22:36;;;;;;;10.80;2.42;;;17.20;80.30;;;;;;5072937;28;20052;-65
2022/06/14 01:25:03;;;;;;;8.90;2.50;;;17.30;80.40;;;;;;5061303;28;20036;-65
2022/06/14 01:27:31;;;;;;;12.68;3.88;;;17.20;80.40;;;;;;5059931;28;20420;-65
2022/06/14 01:30:05;;;;;;;7.05;1.90;;;17.20;80.50;;;;;;5061620;28;20392;-65
2022/06/14 01:32:32;;;;;;;;;;;17.20;80.60;;;;;;5063120;28;20033;-65
2022/06/14 01:35:04;;;;;;;8.95;1.80;;;17.10;80.50;;;;;;5060764;28;19909;-66
2022/06/14 01:37:31;;;;;;;9.85;1.58;;;17.10;80.50;;;;;;5073760;28;20463;-65
2022/06/14 01:39:58;;;;;;;6.63;2.33;;;17.10;80.70;;;;;;5071480;28;20033;-65
2022/06/14 01:42:36;;;;;;;9.93;2.22;;;17.00;80.80;;;;;;5057319;28;20055;-66
2022/06/14 01:45:08;;;;;;;7.70;2.10;;;17.10;81.00;;;;;;5074063;28;20062;-65
2022/06/14 01:48:02;;;;;;;6.35;1.70;;;17.10;81.00;;;;;;5060328;28;20094;-65
2022/06/14 01:54:07;;;;;;;9.88;2.30;;;17.10;81.10;;;;;;5070803;28;20032;-66
2022/06/14 01:56:42;;;;;;;11.45;2.40;;;17.00;81.20;;;;;;5065273;28;20472;-66
2022/06/14 01:59:31;;;;;;;12.73;2.20;;;17.10;81.30;;;;;;5071939;28;20020;-66
2022/06/14 02:02:02;;;;;;;7.90;2.13;;;17.00;80.90;;;;;;5070658;28;20102;-64
2022/06/14 02:05:04;;;;;;;9.15;1.90;;;17.00;80.80;;;;;;5063908;28;20033;-64
2022/06/14 02:07:39;;;;;;;4.57;1.95;;;17.00;80.80;;;;;;5062000;28;20043;-64
2022/06/14 02:10:25;;;;;;;6.80;1.90;;;17.00;81.00;;;;;;5070813;28;20036;-64
2022/06/14 02:13:16;;;;;;;9.82;2.60;;;16.90;80.90;;;;;;5071775;28;20036;-64
2022/06/14 02:15:44;;;;;;;8.18;1.92;;;16.90;80.90;;;;;;5056388;28;20052;-64
2022/06/14 02:18:20;;;;;;;9.95;2.17;;;16.90;81.10;;;;;;5066608;28;20113;-65
2022/06/14 02:20:53;;;;;;;10.57;3.08;;;16.80;81.20;;;;;;5053171;28;20037;-65
2022/06/14 02:23:20;;;;;;;;;;;16.90;81.20;;;;;;5070334;28;20048;-65
2022/06/14 02:25:54;;;;;;;8.45;2.22;;;16.90;80.80;;;;;;5073461;28;20007;-65
2022/06/14 02:28:26;;;;;;;12.75;2.15;;;16.80;80.90;;;;;;5071696;28;20037;-65
2022/06/14 02:30:58;;;;;;;9.32;2.55;;;16.80;81.00;;;;;;5073432;28;20040;-65
2022/06/14 02:33:33;;;;;;;7.75;1.65;;;16.70;81.00;;;;;;5060660;28;20032;-65
2022/06/14 02:36:23;;;;;;;8.05;2.22;;;16.70;81.00;;;;;;5072891;28;20031;-65
2022/06/14 02:39:00;;;;;;;8.35;1.85;;;16.70;81.10;;;;;;5072842;28;20576;-65
2022/06/14 02:41:35;;;;;;;11.07;2.25;;;16.70;81.00;;;;;;5053343;28;20087;-65
2022/06/14 02:44:14;;;;;;;8.52;1.95;;;16.60;80.90;;;;;;5068398;28;20032;-64
2022/06/14 02:46:42;;;;;;;5.78;1.83;;;16.60;80.90;;;;;;5063019;28;20029;-65
2022/06/14 02:49:13;;;;;;;7.60;2.50;;;16.60;81.00;;;;;;5068297;28;20036;-65
2022/06/14 02:52:23;;;;;;;10.60;2.25;;;16.50;81.00;;;;;;5072256;28;20028;-65
2022/06/14 02:54:57;;;;;;;6.97;1.90;;;16.50;81.10;;;;;;5050494;28;20536;-65
2022/06/14 02:57:36;;;;;;;10.30;2.20;;;16.50;81.00;;;;;;5053290;28;20098;-65
2022/06/14 03:00:13;;;;;;;7.72;2.40;;;16.50;81.10;;;;;;5065690;28;20037;-65
2022/06/14 03:02:43;;;;;;;6.60;1.85;;;16.50;81.30;;;;;;5062610;28;20056;-65
2022/06/14 03:05:19;;;;;;;8.43;2.00;;;16.40;81.20;;;;;;5072090;28;20111;-65
2022/06/14 03:08:00;;;;;;;14.35;2.58;;;16.40;81.30;;;;;;5072565;28;20067;-65
2022/06/14 03:10:36;;;;;;;13.65;2.65;;;16.40;81.30;;;;;;5051943;28;20021;-65
2022/06/14 03:13:38;;;;;;;6.90;2.22;;;16.30;81.30;;;;;;5066919;28;20036;-65
2022/06/14 03:16:19;;;;;;;6.65;1.90;;;16.30;81.30;;;;;;5061684;28;20032;-65
2022/06/14 03:19:19;;;;;;;6.93;2.00;;;16.30;81.40;;;;;;5072084;28;20045;-65
2022/06/14 03:21:59;;;;;;;5.95;2.38;;;16.20;81.50;;;;;;5060791;28;20028;-64
2022/06/14 03:24:39;;;;;;;9.95;2.10;;;16.20;81.50;;;;;;5070577;28;20030;-65
2022/06/14 03:27:28;;;;;;;8.52;2.33;;;16.20;81.60;;;;;;5071811;28;20064;-64
2022/06/14 03:30:16;;;;;;;12.23;2.65;;;16.10;81.60;;;;;;5062949;28;20032;-65
2022/06/14 03:33:04;;;;;;;7.65;1.98;;;16.10;81.50;;;;;;5058042;28;20039;-65
2022/06/14 03:35:34;;;;;;;7.15;2.15;;;16.10;81.50;;;;;;5071754;28;20048;-65
2022/06/14 03:38:06;;;;;;;5.68;1.75;;;16.10;81.70;;;;;;5071623;28;20032;-65
2022/06/14 03:40:32;;;;;;;13.35;2.05;;;16.00;81.70;;;;;;5069311;28;20033;-64
2022/06/14 03:43:00;;;;;;;8.63;1.98;;;16.00;81.80;;;;;;5063537;28;20504;-65
2022/06/14 03:45:44;;;;;;;10.48;2.15;;;16.00;81.90;;;;;;5068808;28;20123;-66
2022/06/14 03:48:11;;;;;;;8.23;2.10;;;16.00;82.00;;;;;;5071642;28;20049;-65
2022/06/14 03:50:58;;;;;;;7.60;2.55;;;16.00;82.00;;;;;;5055496;28;20389;-65
2022/06/14 03:54:01;;;;;;;6.05;1.80;;;15.90;82.10;;;;;;5067442;28;20082;-65
2022/06/14 03:56:49;;;;;;;7.35;2.33;;;15.90;82.10;;;;;;5067720;28;20060;-64
2022/06/14 03:59:48;;;;;;;14.45;2.03;;;15.90;82.30;;;;;;5060986;28;20074;-64
2022/06/14 04:02:53;;;;;;;9.57;1.70;;;15.90;82.80;;;;;;5053732;28;20114;-64
2022/06/14 04:05:55;;;;;;;5.88;1.88;;;15.90;82.60;;;;;;5058312;28;20400;-63
2022/06/14 04:08:49;;;;;;;8.23;2.28;;;15.80;82.40;;;;;;5068665;28;20051;-64
2022/06/14 04:11:28;;;;;;;7.97;2.45;;;15.80;82.50;;;;;;5070081;28;20028;-64
2022/06/14 04:14:12;;;;;;;8.77;2.42;;;15.80;82.70;;;;;;5069128;28;20426;-64
2022/06/14 04:16:53;;;;;;;7.57;2.30;;;15.80;82.90;;;;;;5067742;28;20028;-64
2022/06/14 04:19:25;;;;;;;5.05;1.90;;;15.80;82.90;;;;;;5069894;28;20043;-64
2022/06/14 04:22:09;;;;;;;8.93;2.13;;;15.70;82.80;;;;;;5069337;28;20028;-64
2022/06/14 04:24:45;;;;;;;14.88;2.92;;;15.80;82.80;;;;;;5069804;28;20042;-65
2022/06/14 04:27:23;;;;;;;12.35;2.17;;;15.70;82.70;;;;;;5068171;28;20032;-65
2022/06/14 04:30:03;;;;;;;12.00;2.75;;;15.80;82.70;;;;;;5067495;28;20393;-64
2022/06/14 04:32:43;;;;;;;5.90;1.90;;;15.70;82.70;;;;;;5070729;28;20035;-64
2022/06/14 04:35:48;;;;;;;6.82;1.77;;;15.70;82.60;;;;;;5069981;28;20503;-64
2022/06/14 04:38:20;;;;;;;5.07;1.70;;;15.70;82.60;;;;;;5064592;28;20029;-64
2022/06/14 04:41:03;;;;;;;10.73;2.30;;;15.70;82.60;;;;;;5068720;28;20492;-65
2022/06/14 04:43:45;;;;;;;6.88;2.30;;;15.70;82.80;;;;;;5059217;28;20087;-64
2022/06/14 04:46:37;;;;;;;7.32;2.22;;;15.60;83.00;;;;;;5064221;28;20031;-64
2022/06/14 04:49:25;;;;;;;13.40;2.10;;;15.70;83.00;;;;;;5057202;28;20381;-64
2022/06/14 04:51:55;;;;;;;10.07;2.05;;;15.70;82.90;;;;;;5064215;28;20045;-63
2022/06/14 04:54:50;;;;;;;12.43;2.58;;;15.70;83.00;;;;;;5060996;28;20039;-63
2022/06/14 04:57:35;;;;;;;10.63;2.45;;;15.70;83.10;;;;;;5046064;28;20518;-63
2022/06/14 05:00:08;;;;;;;7.22;1.92;;;15.70;83.00;;;;;;5065798;28;20370;-63
2022/06/14 05:02:39;;;;;;;7.28;2.00;;;15.70;83.10;;;;;;5067299;28;20045;-63
2022/06/14 05:05:14;;;;;;;10.60;2.95;;;15.70;83.10;;;;;;5070226;28;20036;-64
2022/06/14 05:07:53;;;;;;;9.10;2.20;;;15.70;83.50;;;;;;5069896;28;20119;-63
2022/06/14 05:10:38;;;;;;;8.27;2.00;;;15.70;83.70;;;;;;5067772;28;20028;-64
2022/06/14 05:13:23;;;;;;;9.05;2.78;;;15.70;83.30;;;;;;5062308;28;20033;-63
2022/06/14 05:16:06;;;;;;;4.63;1.85;;;15.80;83.30;;;;;;5061905;28;20371;-65
2022/06/14 05:18:46;;;;;;;6.07;2.22;;;15.70;83.20;;;;;;5064872;28;20059;-65
2022/06/14 05:21:22;;;;;;;10.45;2.63;;;15.70;83.50;;;;;;5062987;28;20033;-65
2022/06/14 05:23:51;;;;;;;9.60;2.38;;;15.70;83.70;;;;;;5065931;28;20037;-65
2022/06/14 05:26:17;;;;;;;6.13;2.08;;;15.70;83.30;;;;;;5067520;28;20032;-64
2022/06/14 05:28:55;;;;;;;9.85;2.40;;;15.70;83.50;;;;;;5061625;28;20047;-64
2022/06/14 05:31:41;;;;;;;11.23;2.50;;;15.70;83.90;;;;;;5068143;28;20063;-63
2022/06/14 05:34:11;;;;;;;6.63;2.60;;;15.70;84.30;;;;;;5070774;28;20056;-63
2022/06/14 05:37:18;;;;;;;8.20;2.25;;;15.70;84.20;;;;;;5072694;28;20094;-63
2022/06/14 05:39:56;;;;;;;9.50;2.45;;;15.80;84.20;;;;;;5055878;28;20492;-65
2022/06/14 05:42:33;;;;;;;7.20;1.50;;;15.80;84.00;;;;;;5072885;28;20081;-66
2022/06/14 05:45:01;;;;;;;5.50;1.20;;;15.80;83.50;;;;;;5071221;28;20086;-64
2022/06/14 05:47:36;;;;;;;5.57;1.75;;;15.80;83.10;;;;;;5058287;28;20048;-64
2022/06/14 05:50:08;;;;;;;7.40;1.58;;;15.80;83.40;;;;;;5070230;28;20377;-63
2022/06/14 05:53:05;;;;;;;8.02;2.17;;;15.80;83.30;;;;;;5069754;28;20032;-66
2022/06/14 05:55:55;;;;;;;7.22;2.53;;;15.80;83.90;;;;;;5055806;28;20033;-65
2022/06/14 05:58:40;;;;;;;11.80;1.88;;;15.90;84.70;;;;;;5055923;28;20040;-66
2022/06/14 06:01:18;;;;;;;10.13;1.80;;;15.90;84.00;;;;;;5069582;28;20445;-66
2022/06/14 06:03:59;;;;;;;13.68;2.47;;;15.90;84.40;;;;;;5074455;28;20504;-66
2022/06/14 06:06:34;;;;;;;9.18;2.10;;;15.90;84.70;;;;;;5058357;28;20120;-66
2022/06/14 06:09:10;;;;;;;9.13;2.28;;;15.90;84.90;;;;;;5068386;28;20480;-66
2022/06/14 06:11:47;;;;;;;7.85;2.00;;;15.90;85.30;;;;;;5065545;28;20041;-66
2022/06/14 06:14:21;;;;;;;10.43;2.45;;;16.00;85.50;;;;;;5067245;28;20056;-66
2022/06/14 06:17:03;;;;;;;7.07;1.83;;;16.00;85.20;;;;;;5056509;28;20027;-66
2022/06/14 06:19:35;;;;;;;16.73;2.75;;;16.00;85.10;;;;;;5052995;28;20067;-66
2022/06/14 06:22:33;;;;;;;1.83;1.50;;;16.00;85.30;;;;;;5053054;28;20033;-66
2022/06/14 06:25:04;;;;;;;4.95;1.45;;;16.10;85.00;;;;;;5052399;28;20028;-66
2022/06/14 06:27:41;;;;;;;4.68;1.67;;;16.10;84.90;;;;;;5072203;28;20073;-67
2022/06/14 06:30:15;;;;;;;6.18;2.00;;;16.10;85.50;;;;;;5072014;28;20472;-66
2022/06/14 06:32:42;;;;;;;9.07;2.00;;;16.10;85.50;;;;;;5071320;28;20490;-66
2022/06/14 06:35:09;;;;;;;6.15;1.63;;;16.20;85.70;;;;;;5071863;28;20060;-66
2022/06/14 06:37:48;;;;;;;10.20;1.90;;;16.20;85.60;;;;;;5072866;28;20043;-66
2022/06/14 06:40:21;;;;;;;3.58;1.70;;;16.20;85.50;;;;;;5072293;28;20033;-66
2022/06/14 06:42:56;;;;;;;3.55;1.92;;;16.20;85.60;;;;;;5070199;28;20029;-66
2022/06/14 06:45:29;;;;;;;6.93;1.85;;;16.20;86.10;;;;;;5073570;28;20391;-66
2022/06/14 06:47:57;;;;;;;5.72;1.70;;;16.20;86.20;;;;;;5070208;28;20078;-66
2022/06/14 06:50:26;;;;;;;2.50;1.02;;;16.30;86.20;;;;;;5070848;28;20543;-66
2022/06/14 06:53:04;;;;;;;5.85;2.28;;;16.30;86.20;;;;;;5064085;28;20051;-66
2022/06/14 06:55:39;;;;;;;3.03;1.65;;;16.30;86.50;;;;;;5069625;28;20063;-66
2022/06/14 06:58:15;;;;;;;12.15;1.98;;;16.30;86.70;;;;;;5071480;28;20536;-66
2022/06/14 07:00:43;;;;;;;5.97;1.67;;;16.40;86.80;;;;;;5070868;28;20025;-66
2022/06/14 07:03:19;;;;;;;6.80;1.55;;;16.40;86.50;;;;;;5055498;28;20044;-66
2022/06/14 07:05:50;;;;;;;3.50;1.17;;;16.40;86.80;;;;;;5063892;28;20040;-66
2022/06/14 07:08:24;;;;;;;4.18;1.63;;;16.40;86.70;;;;;;5070768;28;20090;-66
2022/06/14 07:10:52;;;;;;;3.22;1.35;;;16.40;87.80;;;;;;5072255;28;20040;-66
2022/06/14 07:13:34;;;;;;;5.45;1.73;;;16.40;87.30;;;;;;5071689;28;20032;-66
2022/06/14 07:16:05;;;;;;;8.77;2.30;;;16.40;87.70;;;;;;5063859;28;20082;-66
2022/06/14 07:18:57;;;;;;;14.02;1.98;;;16.50;87.70;;;;;;5070208;28;20139;-66
2022/06/14 07:21:31;;;;;;;7.63;2.10;;;16.50;87.80;;;;;;5060743;28;20544;-66
2022/06/14 07:24:09;;;;;;;3.90;1.30;;;16.50;88.20;;;;;;5071103;28;20047;-66
2022/06/14 07:26:44;;;;;;;5.50;1.20;;;16.60;87.70;;;;;;5071938;28;20096;-66
2022/06/14 07:29:24;;;;;;;4.22;1.55;;;16.70;87.20;;;;;;5071519;28;20032;-66
2022/06/14 07:32:12;;;;;;;6.25;2.13;;;16.70;87.20;;;;;;5065942;28;20099;-66
2022/06/14 07:34:39;;;;;;;10.73;1.77;;;16.80;87.40;;;;;;5067679;28;20028;-65
2022/06/14 07:37:17;;;;;;;2.15;0.70;;;16.90;87.00;;;;;;5071639;28;20369;-66
2022/06/14 07:40:02;;;;;;;7.82;1.90;;;17.00;86.40;;;;;;5066412;28;20067;-66
2022/06/14 07:42:39;;;;;;;6.88;1.67;;;17.00;87.10;;;;;;5064950;28;20036;-66
2022/06/14 07:45:07;;;;;;;3.75;1.65;;;17.00;87.50;;;;;;5060474;28;20431;-66
2022/06/14 07:47:47;;;;;;;4.00;1.65;;;17.10;87.20;;;;;;5070719;28;20404;-66
2022/06/14 07:50:33;;;;;;;5.57;1.95;;;17.20;87.50;;;;;;5071787;28;20020;-66
2022/06/14 07:53:10;;;;;;;5.75;1.75;;;17.30;86.90;;;;;;5060391;28;20067;-66
2022/06/14 07:55:43;;;;;;;3.40;1.60;;;17.40;86.20;;;;;;5066208;28;20036;-66
2022/06/14 07:58:23;;;;;;;6.65;1.55;;;17.50;86.70;;;;;;5071982;28;20119;-66
2022/06/14 08:01:09;;;;;;;8.38;2.20;;;17.50;85.90;;;;;;5070915;28;20051;-66
2022/06/14 08:04:03;;;;;;;10.38;2.03;;;17.50;86.10;;;;;;5058815;28;20098;-66
2022/06/14 08:06:36;;;;;;;7.20;1.83;;;17.60;85.80;;;;;;5068657;28;20085;-66
2022/06/14 08:09:12;;;;;;;12.18;1.60;;;17.70;85.10;;;;;;5071806;28;20062;-66
2022/06/14 08:11:55;;;;;;;6.30;2.00;;;17.80;85.70;;;;;;5071086;28;20047;-66
2022/06/14 08:14:46;;;;;;;11.55;1.70;;;17.80;85.80;;;;;;5056053;28;20111;-66
2022/06/14 08:17:20;;;;;;;7.35;1.50;;;17.90;85.20;;;;;;5058819;28;20071;-66
2022/06/14 08:20:01;;;;;;;5.32;1.50;;;17.90;85.00;;;;;;5070625;28;20116;-66
2022/06/14 08:22:36;;;;;;;1.15;0.85;;;17.90;84.80;;;;;;5061363;28;20068;-66
2022/06/14 08:25:08;;;;;;;1.88;1.23;;;18.00;84.40;;;;;;5069763;28;20043;-66
2022/06/14 08:27:59;;;;;;;2.85;1.00;;;18.00;84.20;;;;;;5071806;28;20083;-66
2022/06/14 08:30:31;;;;;;;3.83;0.90;;;18.00;84.60;;;;;;5061965;28;20395;-66
2022/06/14 08:33:06;;;;;;;13.93;1.45;;;18.00;84.70;;;;;;5056735;28;20078;-65
2022/06/14 08:35:44;;;;;;;6.05;1.63;;;18.00;84.70;;;;;;5069727;28;20077;-66
2022/06/14 08:38:28;;;;;;;7.20;1.40;;;18.00;84.60;;;;;;5063666;28;20103;-66
2022/06/14 08:41:03;;;;;;;5.93;1.67;;;18.10;84.20;;;;;;5067197;28;20398;-66
2022/06/14 08:43:39;;;;;;;4.70;1.40;;;18.20;84.20;;;;;;5061412;28;20033;-66
2022/06/14 08:46:26;;;;;;;4.00;1.25;;;18.30;83.30;;;;;;5058021;28;20021;-66
2022/06/14 08:49:12;;;;;;;2.90;1.50;;;18.30;83.50;;;;;;5069101;28;20048;-65
2022/06/14 08:52:02;;;;;;;4.88;1.05;;;18.40;83.10;;;;;;5065825;28;20036;-66
2022/06/14 08:55:01;;;;;;;3.33;1.60;;;18.40;82.90;;;;;;5068704;28;20029;-66
2022/06/14 08:57:26;;;;;;;5.68;1.30;;;18.40;83.10;;;;;;5065844;28;20073;-66
2022/06/14 08:59:55;;;;;;;3.92;1.23;;;18.50;83.20;;;;;;5064601;28;20021;-66
2022/06/14 09:02:54;;;;;;;1.73;0.88;;;18.60;82.90;;;;;;5067867;28;20075;-66
2022/06/14 09:05:28;;;;;;;3.80;1.30;;;18.60;82.80;;;;;;5069533;28;20066;-66
2022/06/14 09:08:21;;;;;;;4.45;1.40;;;18.70;82.40;;;;;;5068933;28;20047;-66
2022/06/14 09:10:54;;;;;;;5.53;1.48;;;18.80;82.30;;;;;;5070316;28;20483;-66
2022/06/14 09:13:47;;;;;;;7.82;1.50;;;18.80;81.90;;;;;;5071065;28;20037;-66
2022/06/14 09:16:30;;;;;;;3.55;1.35;;;18.80;81.30;;;;;;5068393;28;20060;-66
2022/06/14 09:18:56;;;;;;;3.58;1.40;;;18.90;81.40;;;;;;5071903;28;20067;-66
2022/06/14 09:21:47;;;;;;;1.85;0.93;;;19.00;81.40;;;;;;5069396;28;20098;-66
2022/06/14 09:24:12;;;;;;;1.52;0.90;;;19.10;81.60;;;;;;5068549;28;20035;-66
2022/06/14 09:26:56;;;;;;;3.72;1.63;;;19.10;82.00;;;;;;5068566;28;20032;-66
2022/06/14 09:29:53;;;;;;;6.07;1.70;;;19.10;82.10;;;;;;5071502;28;20047;-66
2022/06/14 09:35:52;;;;;;;;;;;19.20;81.90;;;;;;5073819;28;20032;-65
2022/06/14 09:38:29;;;;;;;5.13;1.48;;;19.20;82.10;;;;;;5071505;28;20394;-66
2022/06/14 09:41:26;;;;;;;3.63;1.60;;;19.30;82.00;;;;;;5068476;28;20468;-66
2022/06/14 09:44:20;;;;;;;3.22;1.40;;;19.30;82.10;;;;;;5067784;28;20444;-66
2022/06/14 09:47:10;;;;;;;2.92;1.30;;;19.40;81.20;;;;;;5017573;28;20042;-66
2022/06/14 09:49:53;;;;;;;7.00;1.50;;;19.40;81.40;;;;;;5068514;28;20086;-65
2022/06/14 09:52:31;;;;;;;7.57;1.55;;;19.40;80.70;;;;;;5066055;28;20033;-64
2022/06/14 09:55:15;;;;;;;4.13;1.58;;;19.50;80.50;;;;;;5056943;28;20508;-65
2022/06/14 09:58:20;;;;;;;1.77;0.95;;;19.60;80.40;;;;;;5071745;28;20536;-65
2022/06/14 10:01:01;;;;;;;5.25;1.48;;;19.70;81.20;;;;;;5071996;28;20055;-66
2022/06/14 10:03:58;;;;;;;4.72;1.73;;;19.70;81.20;;;;;;5068626;28;20044;-65
2022/06/14 10:06:32;;;;;;;3.63;1.60;;;19.70;80.00;;;;;;5069001;28;20025;-66
2022/06/14 10:09:04;;;;;;;3.35;1.35;;;19.80;79.70;;;;;;5068827;28;20037;-66
2022/06/14 10:11:55;;;;;;;2.60;1.27;;;19.80;80.50;;;;;;5063691;28;20473;-65
2022/06/14 10:14:58;;;;;;;1.90;0.95;;;19.90;80.90;;;;;;5066465;28;20038;-65
2022/06/14 10:17:50;;;;;;;2.15;1.05;;;19.90;81.40;;;;;;5052554;28;20040;-65
2022/06/14 10:20:29;;;;;;;4.55;1.58;;;19.80;81.50;;;;;;5068276;28;20079;-65
2022/06/14 10:23:11;;;;;;;2.13;1.20;;;19.80;81.10;;;;;;5070558;28;20075;-66
2022/06/14 10:28:49;;;;;;;2.15;1.25;;;19.80;80.40;;;;;;5060959;28;20531;-66
2022/06/14 10:31:39;;;;;;;5.93;1.38;;;19.90;80.00;;;;;;5066028;28;20502;-65
2022/06/14 10:34:23;;;;;;;2.53;1.20;;;19.90;80.20;;;;;;5069696;28;20028;-67
2022/06/14 10:37:19;;;;;;;2.00;1.25;;;19.90;80.40;;;;;;5072454;28;20471;-66
2022/06/14 10:40:04;;;;;;;6.07;1.55;;;19.90;80.00;;;;;;5071468;28;20063;-66
2022/06/14 10:42:34;;;;;;;3.78;1.67;;;19.90;79.90;;;;;;5071827;28;20033;-66
2022/06/14 10:45:18;;;;;;;5.38;1.60;;;20.00;78.70;;;;;;5062938;28;20037;-68
2022/06/14 10:48:14;;;;;;;2.10;1.17;;;20.10;78.40;;;;;;5072877;28;20029;-66
2022/06/14 10:50:59;;;;;;;3.70;1.20;;;20.10;78.50;;;;;;5067846;28;20063;-67
2022/06/14 10:53:54;;;;;;;4.72;1.45;;;20.20;78.20;;;;;;5067217;28;20028;-67
2022/06/14 10:56:47;;;;;;;5.85;1.70;;;20.30;78.90;;;;;;5068461;28;20553;-67
2022/06/14 10:59:31;;;;;;;5.22;1.67;;;20.30;79.80;;;;;;5069354;28;20035;-67
2022/06/14 11:02:28;;;;;;;3.72;1.30;;;20.30;80.40;;;;;;5064027;28;20106;-66
2022/06/14 11:05:11;;;;;;;3.17;1.52;;;20.30;80.60;;;;;;5064235;28;20036;-66
2022/06/14 11:08:00;;;;;;;;;;;20.30;81.00;;;;;;5070062;28;20068;-66
2022/06/14 11:10:44;;;;;;;7.35;2.30;;;20.30;81.10;;;;;;5057058;28;20356;-66
2022/06/14 11:13:34;;;;;;;8.88;2.22;;;20.40;81.50;;;;;;5069479;28;20020;-66
2022/06/14 11:16:10;;;;;;;5.72;2.22;;;20.30;81.40;;;;;;5062129;28;20037;-66
2022/06/14 11:19:20;;;;;;;7.32;2.30;;;20.30;81.70;;;;;;5058871;28;20032;-65
2022/06/14 11:21:45;;;;;;;6.90;2.00;;;20.40;81.90;;;;;;5060626;28;20104;-65
2022/06/14 11:24:35;;;;;;;9.73;2.38;;;20.30;82.40;;;;;;5071032;28;20107;-65
2022/06/14 11:27:25;;;;;;;6.10;2.05;;;20.40;81.80;;;;;;5065377;28;20114;-66
2022/06/14 11:30:07;;;;;;;7.38;1.92;;;20.30;81.60;;;;;;5059454;28;20736;-66
2022/06/14 11:33:01;;;;;;;5.65;1.77;;;20.40;81.80;;;;;;5064662;28;20040;-66
2022/06/14 11:35:47;;;;;;;7.22;2.00;;;20.40;81.90;;;;;;5065387;28;20032;-66
2022/06/14 11:38:35;;;;;;;3.30;1.80;;;20.40;81.70;;;;;;5065296;28;20047;-66
2022/06/14 11:41:05;;;;;;;4.80;1.92;;;20.40;81.70;;;;;;5061865;28;20056;-66
2022/06/14 11:43:34;;;;;;;8.27;2.33;;;20.40;81.60;;;;;;5066968;28;20036;-66
2022/06/14 11:46:13;;;;;;;6.80;1.80;;;20.40;81.60;;;;;;5059150;28;20124;-66
2022/06/14 11:48:39;;;;;;;7.45;2.17;;;20.50;81.20;;;;;;5067455;28;20033;-66
2022/06/14 11:51:32;;;;;;;7.22;2.25;;;20.40;81.00;;;;;;5066243;28;20035;-66
2022/06/14 11:54:04;;;;;;;2.88;1.70;;;20.50;80.90;;;;;;5060907;28;20048;-66
2022/06/14 11:56:42;;;;;;;8.27;1.95;;;20.50;80.80;;;;;;5062661;28;20052;-66
2022/06/14 11:59:45;;;;;;;11.95;1.98;;;20.50;80.60;;;;;;5065532;28;20111;-66
2022/06/14 12:02:48;;;;;;;6.13;2.13;;;20.50;80.40;;;;;;5061625;28;20498;-65
2022/06/14 12:05:32;;;;;;;6.78;2.13;;;20.60;80.40;;;;;;5066699;28;20039;-66
2022/06/14 12:08:26;;;;;;;5.15;2.03;;;20.60;80.10;;;;;;5062375;28;20041;-66
2022/06/14 12:11:23;;;;;;;6.15;1.95;;;20.60;79.60;;;;;;5063243;28;20119;-66
2022/06/14 12:14:01;;;;;;;6.30;1.92;;;20.70;79.50;;;;;;5065851;28;20024;-65
2022/06/14 12:16:38;;;;;;;5.50;2.00;;;20.70;79.80;;;;;;5061928;28;20024;-65
2022/06/14 12:19:16;;;;;;;4.10;2.08;;;20.70;79.50;;;;;;5062559;28;20057;-66
2022/06/14 12:27:45;;;;;;;3.72;2.10;;;20.80;79.30;;;;;;5065329;28;20047;-66
2022/06/14 12:30:15;;;;;;;5.22;2.30;;;20.80;78.80;;;;;;5066416;28;20028;-66
2022/06/14 12:33:09;;;;;;;4.72;1.42;;;20.90;78.50;;;;;;5063038;28;20041;-66
2022/06/14 12:35:36;;;;;;;;;;;20.90;78.80;;;;;;5064002;28;20067;-66
2022/06/14 12:38:11;;;;;;;5.28;1.90;;;21.00;80.00;;;;;;5064426;28;19924;-66
2022/06/14 12:40:43;;;;;;;6.10;2.20;;;21.10;79.30;;;;;;5058783;28;20029;-68
2022/06/14 12:43:31;;;;;;;5.40;2.00;;;21.10;79.00;;;;;;5071900;28;20395;-68
2022/06/14 12:46:08;;;;;;;4.28;1.95;;;21.20;78.00;;;;;;5060824;28;20021;-68
2022/06/14 12:49:04;;;;;;;8.82;1.60;;;21.30;77.60;;;;;;5066363;28;20510;-68
2022/06/14 12:51:57;;;;;;;3.50;1.48;;;21.40;75.50;;;;;;5067983;28;20503;-68
2022/06/14 12:54:49;;;;;;;5.07;1.30;;;21.50;75.00;;;;;;5056300;28;20056;-68
2022/06/14 12:57:22;;;;;;;8.85;1.52;;;21.50;76.90;;;;;;5065333;28;20451;-68
2022/06/14 13:00:22;;;;;;;5.03;1.75;;;21.50;77.30;;;;;;5065346;28;20082;-68
2022/06/14 13:02:58;;;;;;;6.03;1.30;;;21.60;76.10;;;;;;5066802;28;20044;-67
2022/06/14 13:05:29;;;;;;;3.95;1.30;;;21.70;75.80;;;;;;5062593;28;20171;-67
2022/06/14 13:08:13;;;;;;;7.57;1.55;;;21.80;75.00;;;;;;5066171;28;20044;-66
2022/06/14 13:11:13;;;;;;;4.35;1.55;;;21.80;75.10;;;;;;5066235;28;20431;-69
2022/06/14 13:14:07;;;;;;;5.20;1.83;;;21.90;75.30;;;;;;5059467;28;20025;-67
2022/06/14 13:17:00;;;;;;;3.95;1.48;;;22.00;75.20;;;;;;5063747;28;20036;-67
2022/06/14 13:19:52;;;;;;;9.80;1.33;;;22.00;75.10;;;;;;5062815;28;20490;-67
2022/06/14 13:22:43;;;;;;;6.63;1.67;;;22.10;74.70;;;;;;5064332;28;20033;-67
2022/06/14 13:25:41;;;;;;;5.35;1.23;;;22.10;74.90;;;;;;5066014;28;20037;-67
2022/06/14 13:28:39;;;;;;;4.38;1.50;;;22.10;74.70;;;;;;5058602;28;20052;-67
2022/06/14 13:31:28;;;;;;;4.32;1.52;;;22.20;74.90;;;;;;5063975;28;20029;-67
2022/06/14 13:34:22;;;;;;;5.22;1.50;;;22.10;73.70;;;;;;5064494;28;20608;-67
2022/06/14 13:36:56;;;;;;;3.17;1.27;;;22.10;74.10;;;;;;5058656;28;20024;-67
2022/06/14 13:39:49;;;;;;;3.97;1.30;;;22.10;74.40;;;;;;5067154;28;20053;-66
2022/06/14 13:42:53;;;;;;;3.38;1.20;;;22.10;74.70;;;;;;5067367;28;20028;-66
2022/06/14 13:45:56;;;;;;;9.07;1.70;;;22.10;74.50;;;;;;5061335;28;20514;-66
2022/06/14 13:48:33;;;;;;;4.45;1.55;;;22.10;74.10;;;;;;5068262;28;20159;-66
2022/06/14 13:51:30;;;;;;;3.22;1.35;;;22.00;74.30;;;;;;5062614;28;20017;-68
2022/06/14 13:54:10;;;;;;;5.35;1.50;;;22.00;73.60;;;;;;5060883;28;20146;-67
2022/06/14 13:56:45;;;;;;;3.25;1.58;;;22.00;74.10;;;;;;5064798;28;20483;-65
2022/06/14 13:59:16;;;;;;;4.78;1.65;;;22.00;74.50;;;;;;5065032;28;20021;-66
2022/06/14 14:01:59;;;;;;;4.80;1.40;;;22.10;74.40;;;;;;5067267;28;20052;-67
2022/06/14 14:04:46;;;;;;;6.70;1.52;;;22.10;74.50;;;;;;5067249;28;20059;-65
2022/06/14 14:07:34;;;;;;;2.40;1.33;;;22.20;74.60;;;;;;5065330;28;20090;-66